createdAt,value
2024-03-03T00:00:47.916Z,33.40
2024-03-03T00:05:17.839Z,31.10
2024-03-03T00:09:25.868Z,37.70
2024-03-03T00:13:34.220Z,35.30
2024-03-03T00:17:42.619Z,35.00
2024-03-03T00:21:50.846Z,34.80
2024-03-03T00:25:58.523Z,38.10
2024-03-03T00:30:06.550Z,85.20
2024-03-03T00:34:14.645Z,95.10
2024-03-03T00:38:22.716Z,39.90
2024-03-03T00:42:30.847Z,42.70
2024-03-03T00:46:39.094Z,39.40
2024-03-03T00:50:47.183Z,41.90
2024-03-03T00:54:55.174Z,36.10
2024-03-03T00:59:03.428Z,43.80
2024-03-03T01:03:11.249Z,38.40
2024-03-03T01:07:19.227Z,37.50
2024-03-03T01:11:28.066Z,39.50
2024-03-03T01:15:35.750Z,39.00
2024-03-03T01:19:43.764Z,37.00
2024-03-03T01:23:52.622Z,34.70
2024-03-03T01:28:00.365Z,37.80
2024-03-03T01:32:10.149Z,39.50
2024-03-03T01:36:17.906Z,43.10
2024-03-03T01:40:26.912Z,39.70
2024-03-03T01:44:35.216Z,39.60
2024-03-03T01:48:43.863Z,41.50
2024-03-03T01:52:52.727Z,41.00
2024-03-03T01:57:02.030Z,42.90
2024-03-03T02:01:10.699Z,43.60
2024-03-03T02:05:19.218Z,40.30
2024-03-03T02:09:28.079Z,39.40
2024-03-03T02:13:35.895Z,46.50
2024-03-03T02:17:44.085Z,43.30
2024-03-03T02:21:51.576Z,47.30
2024-03-03T02:25:59.792Z,45.90
2024-03-03T02:30:09.524Z,43.20
2024-03-03T02:34:17.256Z,41.40
2024-03-03T02:38:25.548Z,43.70
2024-03-03T02:42:36.359Z,42.60
2024-03-03T02:46:44.683Z,47.10
2024-03-03T02:50:52.860Z,46.00
2024-03-03T02:55:00.640Z,41.40
2024-03-03T02:59:08.736Z,44.50
2024-03-03T03:03:17.759Z,45.80
2024-03-03T03:07:26.009Z,45.40
2024-03-03T03:11:34.428Z,47.10
2024-03-03T03:15:42.409Z,44.90
2024-03-03T03:19:50.996Z,43.70
2024-03-03T03:23:58.858Z,48.60
2024-03-03T03:28:08.519Z,46.90
2024-03-03T03:32:16.083Z,56.10
2024-03-03T03:36:23.737Z,53.80
2024-03-03T03:40:41.341Z,52.70
2024-03-03T03:44:49.360Z,48.90
2024-03-03T03:48:57.146Z,52.10
2024-03-03T03:53:04.763Z,49.50
2024-03-03T03:57:12.954Z,53.70
2024-03-03T04:01:22.798Z,52.70
2024-03-03T04:05:31.020Z,53.40
2024-03-03T04:09:38.811Z,50.70
2024-03-03T04:13:47.457Z,53.40
2024-03-03T04:17:55.402Z,53.80
2024-03-03T04:22:02.946Z,54.60
2024-03-03T04:26:11.870Z,51.00
2024-03-03T04:30:19.820Z,47.10
2024-03-03T04:34:30.918Z,50.70
2024-03-03T04:38:41.690Z,50.10
2024-03-03T04:42:50.867Z,55.00
2024-03-03T04:46:58.817Z,45.30
2024-03-03T04:51:07.815Z,48.50
2024-03-03T04:55:16.164Z,51.90
2024-03-03T04:59:24.176Z,54.00
2024-03-03T05:03:32.887Z,49.80
2024-03-03T05:07:40.793Z,42.00
2024-03-03T05:11:48.595Z,44.00
2024-03-03T05:15:56.439Z,42.50
2024-03-03T05:20:04.091Z,41.30
2024-03-03T05:24:11.954Z,42.00
2024-03-03T05:28:19.394Z,38.60
2024-03-03T05:32:27.087Z,36.50
2024-03-03T05:36:38.276Z,38.10
2024-03-03T05:40:46.237Z,36.20
2024-03-03T05:44:54.675Z,35.00
2024-03-03T05:49:03.780Z,30.50
2024-03-03T05:53:11.620Z,28.20
2024-03-03T05:57:19.157Z,22.20
2024-03-03T06:01:26.450Z,21.50
2024-03-03T06:05:34.695Z,20.80
2024-03-03T06:09:43.405Z,25.00
2024-03-03T06:13:51.371Z,26.00
2024-03-03T06:17:59.011Z,25.90
2024-03-03T06:22:09.960Z,22.10
2024-03-03T06:26:20.629Z,20.40
2024-03-03T06:30:30.925Z,19.50
2024-03-03T06:34:39.719Z,24.20
2024-03-03T06:38:47.165Z,22.80
2024-03-03T06:42:56.598Z,24.10
2024-03-03T06:47:04.227Z,20.20
2024-03-03T06:51:12.710Z,20.40
2024-03-03T06:55:20.682Z,19.80
2024-03-03T06:59:28.744Z,22.10
2024-03-03T07:04:09.488Z,22.20
2024-03-03T07:08:17.657Z,21.50
2024-03-03T07:12:25.320Z,19.90
2024-03-03T07:16:33.949Z,18.20
2024-03-03T07:20:41.944Z,17.60
2024-03-03T07:24:50.696Z,22.90
2024-03-03T07:28:58.324Z,20.70
2024-03-03T07:33:06.858Z,20.90
2024-03-03T07:37:14.776Z,19.00
2024-03-03T07:41:23.278Z,22.00
2024-03-03T07:45:30.842Z,20.20
2024-03-03T07:49:38.945Z,18.70
2024-03-03T07:53:50.586Z,21.20
2024-03-03T07:57:58.809Z,22.90
2024-03-03T08:02:07.909Z,20.50
2024-03-03T08:06:16.016Z,20.10
2024-03-03T08:10:23.984Z,21.20
2024-03-03T08:14:31.732Z,19.50
2024-03-03T08:18:39.551Z,23.20
2024-03-03T08:22:47.324Z,23.30
2024-03-03T08:26:54.873Z,22.00
2024-03-03T08:31:03.042Z,20.10
2024-03-03T08:35:12.066Z,22.80
2024-03-03T08:39:21.467Z,21.90
2024-03-03T08:43:29.546Z,24.00
2024-03-03T08:47:37.945Z,25.00
2024-03-03T08:51:47.070Z,23.10
2024-03-03T08:55:55.503Z,23.20
2024-03-03T09:00:04.631Z,24.00
2024-03-03T09:04:14.099Z,22.40
2024-03-03T09:08:21.620Z,26.60
2024-03-03T09:12:30.261Z,22.20
2024-03-03T09:16:39.201Z,23.10
2024-03-03T09:20:46.815Z,21.70
2024-03-03T09:24:54.809Z,21.50
2024-03-03T09:29:03.236Z,20.10
2024-03-03T09:33:12.195Z,18.20
2024-03-03T09:37:20.767Z,19.00
2024-03-03T09:41:28.571Z,22.70
2024-03-03T09:45:36.199Z,19.20
2024-03-03T09:49:45.548Z,18.90
2024-03-03T09:53:52.960Z,20.10
2024-03-03T09:58:02.406Z,17.90
2024-03-03T10:02:16.668Z,17.90
2024-03-03T10:06:26.149Z,17.80
2024-03-03T10:10:37.540Z,22.10
2024-03-03T10:14:46.082Z,17.10
2024-03-03T10:19:11.294Z,17.30
2024-03-03T10:23:25.973Z,16.10
2024-03-03T10:27:33.561Z,16.70
2024-03-03T10:31:41.286Z,18.80
2024-03-03T10:35:50.206Z,16.20
2024-03-03T10:39:58.584Z,16.70
2024-03-03T10:44:07.293Z,17.40
2024-03-03T10:48:14.812Z,16.10
2024-03-03T10:52:22.213Z,18.80
2024-03-03T10:56:30.511Z,16.00
2024-03-03T11:00:38.865Z,17.80
2024-03-03T11:04:47.132Z,16.20
2024-03-03T11:08:54.642Z,18.10
2024-03-03T11:13:05.267Z,17.20
2024-03-03T11:17:17.544Z,16.60
2024-03-03T11:21:31.209Z,13.70
2024-03-03T11:25:45.612Z,14.90
2024-03-03T11:29:53.973Z,13.80
2024-03-03T11:34:04.141Z,16.40
2024-03-03T11:38:13.637Z,13.90
2024-03-03T11:42:30.799Z,15.80
2024-03-03T11:46:51.395Z,14.80
2024-03-03T11:51:28.585Z,14.70
2024-03-03T11:55:39.741Z,18.80
2024-03-03T11:59:49.277Z,12.70
2024-03-03T12:03:57.999Z,15.60
2024-03-03T12:08:09.832Z,17.50
2024-03-03T12:12:17.472Z,13.50
2024-03-03T12:16:34.759Z,13.80
2024-03-03T12:20:45.526Z,13.70
2024-03-03T12:25:00.757Z,12.10
2024-03-03T12:29:10.465Z,17.30
2024-03-03T12:33:19.973Z,15.60
2024-03-03T12:37:29.903Z,14.70
2024-03-03T12:41:37.508Z,13.60
2024-03-03T12:45:48.425Z,13.20
2024-03-03T12:49:56.565Z,14.40
2024-03-03T12:54:05.507Z,15.10
2024-03-03T12:58:14.501Z,13.50
2024-03-03T13:02:22.108Z,14.20
2024-03-03T13:06:31.612Z,15.20
2024-03-03T13:10:40.747Z,11.40
2024-03-03T13:14:53.214Z,14.30
2024-03-03T13:19:05.703Z,12.90
2024-03-03T13:23:16.255Z,13.90
2024-03-03T13:27:23.597Z,13.80
2024-03-03T13:31:31.025Z,13.40
2024-03-03T13:35:40.099Z,12.80
2024-03-03T13:39:47.932Z,12.50
2024-03-03T13:43:55.705Z,12.70
2024-03-03T13:48:06.865Z,13.70
2024-03-03T13:52:15.349Z,14.60
2024-03-03T13:56:23.059Z,13.00
2024-03-03T14:00:31.166Z,13.00
2024-03-03T14:04:38.932Z,12.90
2024-03-03T14:08:47.301Z,14.40
2024-03-03T14:12:55.406Z,15.20
2024-03-03T14:17:03.563Z,13.30
2024-03-03T14:21:11.715Z,14.50
2024-03-03T14:25:19.908Z,15.80
2024-03-03T14:29:27.602Z,16.50
2024-03-03T14:33:35.736Z,15.50
2024-03-03T14:37:43.198Z,14.80
2024-03-03T14:41:51.397Z,13.50
2024-03-03T14:45:59.962Z,15.90
2024-03-03T14:50:10.338Z,16.00
2024-03-03T14:54:18.439Z,16.00
2024-03-03T14:58:26.488Z,14.70
2024-03-03T15:02:34.106Z,14.80
2024-03-03T15:06:41.944Z,17.10
2024-03-03T15:10:50.004Z,15.80
2024-03-03T15:14:59.333Z,11.90
2024-03-03T15:19:07.755Z,14.10
2024-03-03T15:23:15.809Z,14.10
2024-03-03T15:27:23.981Z,14.60
2024-03-03T15:31:32.086Z,12.90
2024-03-03T15:35:40.070Z,12.60
2024-03-03T15:39:47.853Z,11.30
2024-03-03T15:43:55.852Z,12.10
2024-03-03T15:48:05.457Z,11.30
2024-03-03T15:52:15.764Z,12.80
2024-03-03T15:56:23.811Z,13.80
2024-03-03T16:00:31.914Z,16.00
2024-03-03T16:04:39.682Z,15.00
2024-03-03T16:08:47.440Z,14.90
2024-03-03T16:12:55.439Z,11.20
2024-03-03T16:17:05.079Z,13.90
2024-03-03T16:21:13.080Z,19.70
2024-03-03T16:25:20.642Z,11.50
2024-03-03T16:29:28.460Z,14.50
2024-03-03T16:33:36.118Z,12.00
2024-03-03T16:37:44.436Z,12.80
2024-03-03T16:41:53.473Z,16.00
2024-03-03T16:46:01.637Z,15.80
2024-03-03T16:50:10.942Z,14.80
2024-03-03T16:54:20.123Z,13.70
2024-03-03T16:58:28.390Z,15.90
2024-03-03T17:02:36.277Z,13.30
2024-03-03T17:06:47.085Z,12.50
2024-03-03T17:10:55.478Z,16.90
2024-03-03T17:15:10.894Z,14.10
2024-03-03T17:24:01.228Z,12.90
2024-03-03T17:28:09.739Z,13.50
2024-03-03T17:32:17.545Z,14.20
2024-03-03T17:36:26.393Z,15.40
2024-03-03T17:40:35.221Z,15.60
2024-03-03T17:44:43.275Z,14.60
2024-03-03T17:48:51.367Z,16.40
2024-03-03T17:52:59.045Z,15.40
2024-03-03T17:57:07.622Z,14.30
2024-03-03T18:01:15.421Z,14.00
2024-03-03T18:05:24.973Z,16.00
2024-03-03T18:09:33.816Z,17.30
2024-03-03T18:13:41.871Z,25.60
2024-03-03T18:17:49.961Z,19.60
2024-03-03T18:21:58.262Z,19.10
2024-03-03T18:26:06.865Z,18.40
2024-03-03T18:30:17.234Z,23.10
2024-03-03T18:34:25.164Z,22.10
2024-03-03T18:38:33.510Z,22.30
2024-03-03T18:42:47.141Z,20.70
2024-03-03T18:46:57.300Z,19.40
2024-03-03T18:51:06.839Z,22.70
2024-03-03T18:55:15.420Z,18.00
2024-03-03T18:59:23.976Z,23.70
2024-03-03T19:03:31.658Z,22.10
2024-03-03T19:07:40.475Z,23.20
2024-03-03T19:11:48.508Z,20.50
2024-03-03T19:15:57.126Z,21.90
2024-03-03T19:20:05.673Z,21.30
2024-03-03T19:24:13.737Z,19.30
2024-03-03T19:28:23.952Z,22.20
2024-03-03T19:32:33.198Z,23.50
2024-03-03T19:36:41.004Z,24.50
2024-03-03T19:40:51.174Z,23.40
2024-03-03T19:44:59.430Z,24.30
2024-03-03T19:49:08.222Z,25.90
2024-03-03T19:53:15.945Z,25.40
2024-03-03T19:57:23.637Z,27.60
2024-03-03T20:01:31.624Z,22.20
2024-03-03T20:05:39.961Z,20.20
2024-03-03T20:09:48.926Z,22.10
2024-03-03T20:13:57.083Z,21.00
2024-03-03T20:18:05.717Z,21.80
2024-03-03T20:22:13.491Z,22.60
2024-03-03T20:26:21.544Z,24.40
2024-03-03T20:30:29.466Z,23.70
2024-03-03T20:34:37.257Z,22.40
2024-03-03T20:38:48.814Z,25.00
2024-03-03T20:42:56.750Z,25.40
2024-03-03T20:47:05.077Z,28.20
2024-03-03T20:51:15.529Z,29.80
2024-03-03T20:55:23.807Z,28.90
2024-03-03T20:59:32.049Z,26.80
2024-03-03T21:03:40.525Z,27.00
2024-03-03T21:07:49.161Z,29.60
2024-03-03T21:11:57.030Z,26.10
2024-03-03T21:16:05.719Z,25.20
2024-03-03T21:20:15.160Z,24.40
2024-03-03T21:24:23.006Z,23.70
2024-03-03T21:28:31.502Z,26.30
2024-03-03T21:32:39.161Z,24.50
2024-03-03T21:36:47.116Z,24.80
2024-03-03T21:40:54.690Z,26.20
2024-03-03T21:45:02.845Z,22.50
2024-03-03T21:49:10.664Z,25.40
2024-03-03T21:53:19.103Z,24.50
2024-03-03T21:57:26.338Z,23.60
2024-03-03T22:01:36.245Z,28.30
2024-03-03T22:05:44.927Z,26.60
2024-03-03T22:09:53.314Z,25.30
2024-03-03T22:14:00.912Z,25.70
2024-03-03T22:18:12.896Z,23.50
2024-03-03T22:22:21.407Z,25.50
2024-03-03T22:26:31.058Z,23.40
2024-03-03T22:30:39.769Z,24.20
2024-03-03T22:34:47.603Z,26.60
2024-03-03T22:38:55.661Z,25.90
2024-03-03T22:43:03.742Z,29.50
2024-03-03T22:47:11.830Z,26.40
2024-03-03T22:51:20.370Z,27.10
2024-03-03T22:55:28.832Z,26.00
2024-03-03T22:59:37.256Z,24.30
2024-03-03T23:03:48.289Z,26.20
2024-03-03T23:07:56.630Z,26.40
2024-03-03T23:12:05.393Z,26.30
2024-03-03T23:16:13.207Z,28.50
2024-03-03T23:20:21.450Z,27.50
2024-03-03T23:24:29.581Z,25.90
2024-03-03T23:28:39.732Z,27.70
2024-03-03T23:32:48.118Z,24.20
2024-03-03T23:36:56.423Z,26.20
2024-03-03T23:41:04.373Z,28.50
2024-03-03T23:45:13.816Z,24.30
2024-03-03T23:49:21.875Z,25.90
2024-03-03T23:53:30.723Z,26.20
2024-03-03T23:57:39.638Z,27.60
